Time;durP1;ratioP1;P1;durP2;ratioP2;P2;SDS_P1;SDS_P2;PMS_P1;PMS_P2;Temp;Humidity;BMP_temperature;BMP_pressure;BME280_temperature;BME280_humidity;BME280_pressure;Samples;Min_cycle;Max_cycle;Signal;HPM_P1;HPM_P2
2022/05/27 00:00:24;;;;;;;;;1.00;1.00;;;;;16.86;55.64;101920.94;5027712;28;45647;-61
2022/05/27 00:02:50;;;;;;;;;1.00;1.00;;;;;16.84;55.88;101922.84;5029896;28;45315;-61
2022/05/27 00:05:17;;;;;;;;;1.00;1.00;;;;;16.82;55.80;101908.66;5028223;28;45291;-64
2022/05/27 00:07:43;;;;;;;;;1.00;1.00;;;;;16.82;55.78;101911.34;5018615;28;48301;-62
2022/05/27 00:10:11;;;;;;;;;2.67;1.00;;;;;16.83;55.79;101913.06;5016058;28;45379;-62
2022/05/27 00:12:37;;;;;;;;;1.00;1.00;;;;;16.80;55.77;101907.88;5016385;28;45411;-61
2022/05/27 00:15:06;;;;;;;;;2.00;1.00;;;;;16.78;55.96;101917.84;5016609;28;45217;-64
2022/05/27 00:17:32;;;;;;;;;2.33;1.00;;;;;16.78;56.13;101920.53;5025478;28;46745;-62
2022/05/27 00:19:57;;;;;;;;;1.00;1.00;;;;;16.74;56.44;101910.94;5019709;28;45435;-62
2022/05/27 00:22:23;;;;;;;;;2.00;1.00;;;;;16.68;56.31;101904.13;5016907;28;45268;-60
2022/05/27 00:24:48;;;;;;;;;1.00;1.00;;;;;16.70;56.36;101912.94;5020800;28;45420;-66
2022/05/27 00:27:14;;;;;;;;;0.00;0.00;;;;;16.71;56.38;101901.25;5029538;28;45390;-63
2022/05/27 00:29:39;;;;;;;;;0.67;0.67;;;;;16.69;56.36;101903.16;5031184;28;45906;-62
2022/05/27 00:32:05;;;;;;;;;1.00;1.00;;;;;16.63;56.51;101895.44;5034496;28;45398;-63
2022/05/27 00:34:31;;;;;;;;;1.00;1.00;;;;;16.63;56.62;101894.56;5022326;28;45482;-62
2022/05/27 00:36:57;;;;;;;;;0.00;0.00;;;;;16.58;56.52;101880.56;5015820;28;45664;-60
2022/05/27 00:39:22;;;;;;;;;0.00;0.00;;;;;16.57;56.67;101885.06;5016275;28;45346;-62
2022/05/27 00:41:48;;;;;;;;;1.00;1.00;;;;;16.51;57.13;101882.75;5031786;28;45276;-61
2022/05/27 00:44:14;;;;;;;;;1.33;1.33;;;;;16.49;57.37;101882.84;5036181;28;45493;-61
2022/05/27 00:46:43;;;;;;;;;1.00;1.00;;;;;16.48;57.12;101886.47;5038834;28;47761;-65
2022/05/27 00:49:17;;;;;;;;;1.00;1.00;;;;;16.41;57.13;101873.53;5028413;28;45521;-63
2022/05/27 00:51:51;;;;;;;;;0.67;0.67;;;;;16.40;57.50;101887.88;5019499;28;45374;-60
2022/05/27 00:54:20;;;;;;;;;1.00;1.00;;;;;16.35;57.63;101879.25;5019587;28;45367;-63
2022/05/27 00:56:52;;;;;;;;;1.00;1.00;;;;;16.32;57.58;101885.69;5022619;28;45962;-62
2022/05/27 00:59:28;;;;;;;;;1.00;1.00;;;;;16.29;57.53;101885.88;5033801;28;45465;-65
2022/05/27 01:01:53;;;;;;;;;0.67;0.67;;;;;16.23;57.98;101886.22;5034394;28;45626;-65
2022/05/27 01:04:20;;;;;;;;;2.00;0.00;;;;;16.13;57.96;101872.47;5019249;28;45336;-66
2022/05/27 01:06:46;;;;;;;;;2.33;1.00;;;;;16.15;58.22;101877.78;5019338;28;46113;-61
2022/05/27 01:09:14;;;;;;;;;2.33;1.67;;;;;16.11;58.29;101878.88;5019200;28;45450;-62
2022/05/27 01:11:57;;;;;;;;;2.00;0.33;;;;;16.11;58.78;101876.19;5037816;28;45382;-63
2022/05/27 01:14:28;;;;;;;;;1.67;1.67;;;;;16.09;58.96;101873.63;5019623;28;45550;-62
2022/05/27 01:17:02;;;;;;;;;1.00;1.00;;;;;16.06;58.99;101883.66;5034472;28;45547;-64
2022/05/27 01:22:46;;;;;;;;;1.00;1.00;;;;;15.96;59.30;101867.22;5019941;28;45386;-63
2022/05/27 01:25:43;;;;;;;;;1.67;1.33;;;;;15.94;59.45;101879.88;5020862;28;45186;-66
2022/05/27 01:28:12;;;;;;;;;1.00;1.00;;;;;15.92;59.83;101879.97;5034079;28;45441;-65
2022/05/27 01:30:48;;;;;;;;;1.00;1.00;;;;;15.91;59.74;101869.34;5036043;28;45457;-64
2022/05/27 01:33:14;;;;;;;;;2.67;1.00;;;;;15.91;59.78;101870.19;5031764;28;45319;-61
2022/05/27 01:35:42;;;;;;;;;1.00;1.00;;;;;15.89;60.29;101869.44;5018501;28;45462;-66
2022/05/27 01:38:38;;;;;;;;;1.00;1.00;;;;;15.85;60.21;101864.31;5025326;28;46474;-66
2022/05/27 01:41:40;;;;;;;;;1.00;1.00;;;;;15.85;60.36;101873.22;5032159;28;45360;-63
2022/05/27 01:44:15;;;;;;;;;1.00;1.00;;;;;15.82;60.07;101875.22;5036266;28;45481;-61
2022/05/27 01:46:46;;;;;;;;;1.00;1.00;;;;;15.82;60.78;101870.72;5027709;28;45475;-65
2022/05/27 01:49:21;;;;;;;;;2.33;1.00;;;;;15.81;60.07;101878.84;5037023;28;46269;-62
2022/05/27 01:51:59;;;;;;;;;1.67;1.00;;;;;15.78;60.26;101871.00;5021168;28;45417;-60
2022/05/27 01:54:56;;;;;;;;;1.33;0.67;;;;;15.71;60.53;101878.50;5031302;28;45442;-62
2022/05/27 01:57:36;;;;;;;;;2.00;2.00;;;;;15.73;60.17;101879.28;5019821;28;45378;-61
2022/05/27 02:00:15;;;;;;;;;2.00;2.00;;;;;15.70;60.57;101875.91;5036830;28;45477;-63
2022/05/27 02:03:06;;;;;;;;;2.00;2.00;;;;;15.66;60.27;101877.91;5024790;28;45240;-62
2022/05/27 02:05:43;;;;;;;;;1.00;1.00;;;;;15.63;60.78;101876.28;5034425;28;45754;-63
2022/05/27 02:08:23;;;;;;;;;3.33;3.00;;;;;15.60;60.38;101870.22;5028651;28;45484;-62
2022/05/27 02:10:59;;;;;;;;;1.00;1.00;;;;;15.59;60.49;101869.34;5019027;28;45444;-63
2022/05/27 02:13:45;;;;;;;;;3.00;1.00;;;;;15.54;60.59;101863.34;5037130;28;45471;-62
2022/05/27 02:16:20;;;;;;;;;1.00;0.00;;;;;15.51;60.79;101866.22;5020729;28;45476;-66
2022/05/27 02:18:48;;;;;;;;;2.00;1.00;;;;;15.51;60.74;101868.03;5018689;28;45382;-66
2022/05/27 02:21:32;;;;;;;;;3.00;1.00;;;;;15.47;60.79;101869.13;5024497;28;45492;-63
2022/05/27 02:24:07;;;;;;;;;1.00;1.00;;;;;15.44;60.98;101874.69;5037384;28;45444;-64
2022/05/27 02:26:40;;;;;;;;;3.00;1.00;;;;;15.47;61.00;101869.13;5017561;28;45430;-64
2022/05/27 02:29:11;;;;;;;;;2.00;1.00;;;;;15.54;61.14;101871.41;5035748;28;45829;-64
2022/05/27 02:31:40;;;;;;;;;1.00;1.00;;;;;15.54;60.82;101870.53;5018506;28;46082;-64
2022/05/27 02:37:21;;;;;;;;;2.67;2.67;;;;;15.59;60.75;101874.72;5017597;28;45754;-65
2022/05/27 02:39:47;;;;;;;;;2.00;2.00;;;;;15.57;60.72;101870.34;5026482;28;46098;-64
2022/05/27 02:42:19;;;;;;;;;2.00;2.00;;;;;15.60;60.55;101871.06;5036503;28;45427;-62
2022/05/27 02:45:14;;;;;;;;;1.00;1.00;;;;;15.64;60.71;101871.78;5033227;28;45624;-63
2022/05/27 02:48:03;;;;;;;;;2.00;1.00;;;;;15.58;60.90;101869.41;5031776;28;45461;-60
2022/05/27 02:50:49;;;;;;;;;1.67;1.67;;;;;15.60;60.56;101867.53;5035187;28;45371;-61
2022/05/27 02:53:36;;;;;;;;;3.00;2.00;;;;;15.57;60.22;101870.34;5031218;28;46719;-64
2022/05/27 02:56:18;;;;;;;;;1.67;1.67;;;;;15.59;60.53;101873.81;5017111;28;45283;-62
2022/05/27 02:58:43;;;;;;;;;2.00;2.00;;;;;15.55;60.96;101867.78;5020243;28;45775;-62
2022/05/27 03:01:09;;;;;;;;;2.33;2.00;;;;;15.58;60.83;101872.09;5033198;28;45450;-63
2022/05/27 03:03:35;;;;;;;;;4.00;4.00;;;;;15.61;60.82;101877.28;5036526;28;45394;-62
2022/05/27 03:06:38;;;;;;;;;3.00;3.00;;;;;15.59;60.39;101865.78;5040466;28;45565;-64
2022/05/27 03:09:03;;;;;;;;;4.00;2.00;;;;;15.58;61.34;101872.94;5030561;28;45316;-65
2022/05/27 03:11:42;;;;;;;;;4.00;3.33;;;;;15.56;61.34;101876.66;5020845;28;45307;-65
2022/05/27 03:14:31;;;;;;;;;5.33;3.00;;;;;15.53;61.45;101869.69;5023019;28;46244;-68
2022/05/27 03:17:47;;;;;;;;;1.00;1.00;;;;;15.58;61.47;101872.09;5035524;28;45496;-65
2022/05/27 03:20:33;;;;;;;;;2.67;2.00;;;;;15.63;61.56;101872.75;5015882;28;45532;-60
2022/05/27 03:23:10;;;;;;;;;4.67;3.00;;;;;15.62;61.59;101879.91;5017172;28;45426;-63
2022/05/27 03:26:00;;;;;;;;;2.00;2.00;;;;;15.61;61.18;101867.44;5017376;28;45422;-62
2022/05/27 03:28:34;;;;;;;;;2.00;2.00;;;;;15.63;61.83;101872.75;5027087;28;45325;-65
2022/05/27 03:31:12;;;;;;;;;2.00;2.00;;;;;15.63;61.63;101870.06;5019782;28;45403;-63
2022/05/27 03:33:45;;;;;;;;;4.00;2.00;;;;;15.66;61.42;101869.00;5027362;28;45276;-62
2022/05/27 03:36:39;;;;;;;;;2.00;2.00;;;;;15.67;61.55;101866.25;5020314;28;45596;-63
2022/05/27 03:39:47;;;;;;;;;4.33;3.00;;;;;15.66;61.91;101869.00;5016752;28;45310;-62
2022/05/27 03:42:14;;;;;;;;;1.00;1.00;;;;;15.63;61.42;101864.69;5030617;28;45443;-62
2022/05/27 03:44:49;;;;;;;;;2.33;2.33;;;;;15.63;61.35;101862.88;5029296;28;45314;-66
2022/05/27 03:47:15;;;;;;;;;4.00;4.00;;;;;15.61;60.95;101878.16;5017758;28;46183;-65
2022/05/27 03:49:40;;;;;;;;;7.00;4.00;;;;;15.58;61.13;101872.09;5031415;28;45416;-65
2022/05/27 03:52:10;;;;;;;;;4.00;4.00;;;;;15.61;60.89;101875.47;5023707;28;45486;-63
2022/05/27 03:54:36;;;;;;;;;3.00;3.00;;;;;15.58;61.50;101882.81;5048703;28;45603;-65
2022/05/27 03:57:02;;;;;;;;;4.67;4.67;;;;;15.56;61.42;101874.84;5017679;28;46100;-62
2022/05/27 03:59:28;;;;;;;;;4.00;4.00;;;;;15.59;61.06;101885.44;5030986;28;45475;-66
2022/05/27 04:01:55;;;;;;;;;5.67;3.00;;;;;15.59;61.11;101873.81;5036250;28;45464;-64
2022/05/27 04:04:26;;;;;;;;;5.00;4.33;;;;;15.59;60.94;101873.81;5044688;28;45631;-63
2022/05/27 04:06:52;;;;;;;;;5.33;3.00;;;;;15.55;61.19;101872.25;5036844;28;46180;-65
2022/05/27 04:09:20;;;;;;;;;3.00;3.00;;;;;15.51;61.59;101884.13;5036289;28;45342;-64
2022/05/27 04:11:46;;;;;;;;;5.00;5.00;;;;;15.51;61.42;101870.72;5036749;28;45382;-67
2022/05/27 04:14:12;;;;;;;;;3.33;3.00;;;;;15.53;61.45;101890.25;5052412;28;45473;-67
2022/05/27 04:16:38;;;;;;;;;8.00;4.00;;;;;15.56;61.09;101879.34;5039259;28;46334;-62
2022/05/27 04:19:04;;;;;;;;;4.33;4.00;;;;;15.50;61.28;101877.03;5015142;28;45347;-63
2022/05/27 04:21:29;;;;;;;;;5.00;4.33;;;;;15.50;61.69;101885.94;5029653;28;45278;-66
2022/05/27 04:23:55;;;;;;;;;5.00;4.00;;;;;15.48;61.83;101887.81;5035408;28;45675;-66
2022/05/27 04:26:21;;;;;;;;;5.00;5.00;;;;;15.50;61.63;101890.44;5034633;28;45331;-65
2022/05/27 04:28:47;;;;;;;;;5.00;4.67;;;;;15.51;62.01;101876.09;5035748;28;45703;-65
2022/05/27 04:31:13;;;;;;;;;9.33;8.33;;;;;15.53;61.60;101890.25;5036489;28;45433;-65
2022/05/27 04:33:39;;;;;;;;;9.00;6.00;;;;;15.48;61.92;101892.31;5034705;28;45354;-64
2022/05/27 04:36:06;;;;;;;;;5.67;5.67;;;;;15.50;61.90;101888.63;5017396;28;45514;-63
2022/05/27 04:38:33;;;;;;;;;7.67;5.67;;;;;15.47;62.04;101901.31;5031786;28;45241;-66
2022/05/27 04:40:58;;;;;;;;;8.00;4.67;;;;;15.46;62.09;101883.50;5015007;28;45274;-65
2022/05/27 04:43:24;;;;;;;;;7.67;4.00;;;;;15.46;62.21;101895.09;5016487;28;45618;-65
2022/05/27 04:45:49;;;;;;;;;6.00;6.00;;;;;15.47;61.96;101885.22;5016161;28;45683;-61
2022/05/27 04:48:18;;;;;;;;;7.00;5.33;;;;;15.45;61.74;101881.78;5016208;28;45555;-66
2022/05/27 04:50:43;;;;;;;;;4.00;4.00;;;;;15.49;61.87;101891.34;5044569;28;45303;-65
2022/05/27 04:53:10;;;;;;;;;6.00;6.00;;;;;15.44;62.24;101882.72;5043457;28;45850;-66
2022/05/27 04:55:37;;;;;;;;;5.00;5.00;;;;;15.44;61.93;101898.81;5046729;28;45433;-65
2022/05/27 04:58:04;;;;;;;;;4.67;3.33;;;;;15.42;62.18;101895.34;5035053;28;45338;-63
2022/05/27 05:00:36;;;;;;;;;9.00;5.00;;;;;15.45;62.28;101898.72;5014082;28;47047;-63
2022/05/27 05:03:03;;;;;;;;;4.67;4.67;;;;;15.42;61.96;101896.22;5034177;28;45552;-61
2022/05/27 05:05:31;;;;;;;;;8.33;4.33;;;;;15.43;62.40;101891.72;5032602;28;47577;-64
2022/05/27 05:08:01;;;;;;;;;7.00;6.33;;;;;15.44;62.64;101897.00;5018762;28;45503;-64
2022/05/27 05:10:26;;;;;;;;;7.00;5.67;;;;;15.46;62.59;101899.59;5016209;28;45454;-65
2022/05/27 05:12:53;;;;;;;;;7.00;5.33;;;;;15.42;62.67;101890.84;5027094;28;45368;-65
2022/05/27 05:15:20;;;;;;;;;10.00;9.00;;;;;15.41;62.82;101894.50;5028844;28;45504;-63
2022/05/27 05:17:46;;;;;;;;;5.33;5.33;;;;;15.45;62.61;101904.06;5029872;28;45388;-65
2022/05/27 05:20:15;;;;;;;;;5.00;4.33;;;;;15.40;62.77;101891.91;5015339;28;45383;-63
2022/05/27 05:22:41;;;;;;;;;6.00;6.00;;;;;15.46;62.32;101896.91;5015956;28;45343;-63
2022/05/27 05:25:07;;;;;;;;;11.67;7.67;;;;;15.45;62.62;101905.91;5020799;28;46923;-63
2022/05/27 05:27:34;;;;;;;;;9.33;7.33;;;;;15.50;62.67;101903.84;5032878;28;45215;-66
2022/05/27 05:30:01;;;;;;;;;9.33;8.67;;;;;15.48;62.88;101900.34;5020885;28;45544;-67
2022/05/27 05:32:27;;;;;;;;;7.33;7.33;;;;;15.47;62.76;101891.44;5015231;28;45551;-65
2022/05/27 05:34:54;;;;;;;;;10.33;7.67;;;;;15.52;62.74;101893.91;5028807;28;46133;-66
2022/05/27 05:37:19;;;;;;;;;8.67;8.00;;;;;15.53;62.56;101895.63;5033219;28;45335;-64
2022/05/27 05:39:44;;;;;;;;;10.67;9.67;;;;;15.50;62.98;101882.41;5027627;28;45478;-68
2022/05/27 05:42:10;;;;;;;;;8.00;8.00;;;;;15.52;62.84;101892.06;5022231;28;45586;-65
2022/05/27 05:44:36;;;;;;;;;15.67;9.00;;;;;15.57;62.67;101892.66;5028926;28;46179;-64
2022/05/27 05:47:03;;;;;;;;;10.33;9.33;;;;;15.57;63.04;101892.66;5032347;28;45363;-66
2022/05/27 05:49:29;;;;;;;;;15.33;12.33;;;;;15.53;63.15;101890.25;5022569;28;45355;-66
2022/05/27 05:51:57;;;;;;;;;15.00;9.33;;;;;15.54;62.87;101898.22;5030720;28;45502;-64
2022/05/27 05:54:24;;;;;;;;;11.00;9.33;;;;;15.54;63.30;101902.72;5032683;28;46269;-62
2022/05/27 05:56:51;;;;;;;;;12.33;10.67;;;;;15.51;63.06;101903.75;5030718;28;45413;-64
2022/05/27 05:59:18;;;;;;;;;10.67;10.67;;;;;15.50;62.81;101906.53;5018258;28;45328;-67
2022/05/27 06:01:43;;;;;;;;;13.33;11.67;;;;;15.49;63.04;101900.28;5033085;28;45696;-62
2022/05/27 06:04:09;;;;;;;;;15.33;11.00;;;;;15.48;63.42;101897.69;5031901;28;45668;-63
2022/05/27 06:06:35;;;;;;;;;16.33;15.00;;;;;15.45;63.05;101903.22;5021338;28;45379;-65
2022/05/27 06:09:01;;;;;;;;;14.33;13.67;;;;;15.45;63.37;101900.53;5018244;28;45207;-62
2022/05/27 06:11:26;;;;;;;;;11.67;11.67;;;;;15.47;63.34;101895.94;5024083;28;45448;-62
2022/05/27 06:13:52;;;;;;;;;15.33;13.00;;;;;15.48;63.13;101890.50;5034145;28;47730;-61
2022/05/27 06:16:17;;;;;;;;;18.67;13.33;;;;;15.48;63.24;101900.34;5030816;28;45436;-62
2022/05/27 06:18:43;;;;;;;;;12.33;12.33;;;;;15.51;63.64;101902.91;5031340;28;45388;-62
2022/05/27 06:21:09;;;;;;;;;16.67;12.33;;;;;15.52;63.88;101892.06;5037352;28;45387;-62
2022/05/27 06:23:35;;;;;;;;;15.33;12.00;;;;;15.51;63.84;101898.41;5034359;28;45509;-64
2022/05/27 06:26:06;;;;;;;;;14.33;14.00;;;;;15.53;63.59;101906.34;5029710;28;45505;-63
2022/05/27 06:36:45;;;;;;;;;8.00;8.00;;;;;15.52;64.31;101920.72;5040487;28;45307;-61
2022/05/27 06:39:11;;;;;;;;;10.67;9.00;;;;;15.51;63.24;101914.47;5036032;28;45279;-61
2022/05/27 06:41:37;;;;;;;;;8.33;7.00;;;;;15.48;64.36;101909.25;5033412;28;45609;-67
2022/05/27 06:44:04;;;;;;;;;5.00;5.00;;;;;15.50;64.28;101910.06;5034563;28;45391;-67
2022/05/27 06:46:31;;;;;;;;;5.67;5.67;;;;;15.57;63.89;101913.25;5025167;28;45511;-67
2022/05/27 06:48:57;;;;;;;;;6.33;5.00;;;;;15.57;64.15;101907.91;5037736;28;45299;-65
2022/05/27 06:51:23;;;;;;;;;6.67;5.67;;;;;15.64;63.55;101914.69;5034518;28;45619;-63
2022/05/27 06:53:49;;;;;;;;;8.67;5.00;;;;;15.57;63.94;101903.41;5028493;28;45521;-63
2022/05/27 06:56:15;;;;;;;;;5.33;5.33;;;;;15.62;64.00;101912.09;5023231;28;45407;-63
2022/05/27 06:58:42;;;;;;;;;5.33;5.33;;;;;15.67;64.43;101914.50;5034533;28;45405;-68
2022/05/27 07:01:09;;;;;;;;;7.33;6.33;;;;;15.75;63.85;101909.56;5029985;28;45573;-68
2022/05/27 07:03:37;;;;;;;;;7.00;4.33;;;;;15.76;64.05;101908.63;5031964;28;45414;-68
2022/05/27 07:06:07;;;;;;;;;11.33;8.67;;;;;15.80;64.13;101907.50;5033058;28;45418;-63
2022/05/27 07:08:33;;;;;;;;;10.00;8.67;;;;;15.83;63.63;101904.63;5033403;28;45401;-66
2022/05/27 07:10:59;;;;;;;;;8.00;8.00;;;;;15.81;63.81;101906.53;5037570;28;45522;-63
2022/05/27 07:13:24;;;;;;;;;10.00;9.67;;;;;15.86;63.47;101917.00;5035153;28;46034;-64
2022/05/27 07:15:50;;;;;;;;;8.67;8.67;;;;;15.88;63.56;101910.59;5035248;28;45355;-65
2022/05/27 07:18:15;;;;;;;;;14.33;11.33;;;;;15.97;63.49;101900.28;5031236;28;45437;-66
2022/05/27 07:20:41;;;;;;;;;12.67;10.33;;;;;16.10;63.01;101902.19;5022224;28;45610;-65
2022/05/27 07:23:07;;;;;;;;;11.00;10.00;;;;;16.20;62.72;101906.06;5027943;28;47211;-63
2022/05/27 07:25:34;;;;;;;;;11.00;11.00;;;;;16.22;62.56;101906.81;5029361;28;45181;-68
2022/05/27 07:28:00;;;;;;;;;12.00;9.67;;;;;16.31;62.74;101902.75;5016921;28;45312;-66
2022/05/27 07:30:25;;;;;;;;;12.67;11.67;;;;;16.41;62.26;101898.56;5020944;28;45545;-67
2022/05/27 07:32:51;;;;;;;;;12.67;11.67;;;;;16.57;61.85;101905.69;5023551;28;47432;-67
2022/05/27 07:35:16;;;;;;;;;9.67;9.67;;;;;16.65;61.85;101903.38;5017751;28;45709;-64
2022/05/27 07:37:42;;;;;;;;;14.00;9.67;;;;;16.74;61.56;101919.84;5025599;28;45721;-66
2022/05/27 07:40:09;;;;;;;;;10.67;10.67;;;;;16.80;61.39;101915.94;5025559;28;45471;-68
2022/05/27 07:42:34;;;;;;;;;8.33;8.33;;;;;16.86;61.39;101907.50;5019254;28;45483;-64
2022/05/27 07:44:59;;;;;;;;;11.00;7.33;;;;;16.97;60.48;101902.31;5025856;28;45516;-64
2022/05/27 07:47:25;;;;;;;;;10.33;7.33;;;;;17.02;60.49;101907.41;5027749;28;45383;-64
2022/05/27 07:49:50;;;;;;;;;8.67;7.33;;;;;17.02;60.77;101908.28;5020023;28;45564;-67
2022/05/27 07:52:16;;;;;;;;;9.67;6.00;;;;;17.10;60.54;101900.59;5027840;28;45466;-67
2022/05/27 07:54:41;;;;;;;;;9.00;9.00;;;;;17.07;60.62;101908.88;5034343;28;45481;-68
2022/05/27 07:57:25;;;;;;;;;5.00;5.00;;;;;17.10;60.23;101895.22;5033980;28;45333;-68
2022/05/27 08:00:07;;;;;;;;;9.67;8.67;;;;;17.14;60.66;101898.56;5034876;28;45391;-68
2022/05/27 08:02:33;;;;;;;;;10.00;7.00;;;;;17.19;60.17;101898.28;5022869;28;46273;-63
2022/05/27 08:04:58;;;;;;;;;8.67;8.67;;;;;17.15;60.42;101903.00;5022772;28;45580;-64
2022/05/27 08:07:26;;;;;;;;;10.33;9.67;;;;;17.17;60.48;101902.88;5032687;28;45496;-65
2022/05/27 08:09:51;;;;;;;;;11.33;10.67;;;;;17.14;60.44;101905.78;5033986;28;45557;-66
2022/05/27 08:12:17;;;;;;;;;10.00;8.33;;;;;17.15;60.36;101913.75;5015376;28;45434;-65
2022/05/27 08:14:43;;;;;;;;;11.00;11.00;;;;;17.15;60.64;101907.50;5035273;28;45455;-66
2022/05/27 08:17:10;;;;;;;;;14.67;12.00;;;;;17.13;60.32;101914.81;5035963;28;45742;-65
2022/05/27 08:19:36;;;;;;;;;10.67;9.67;;;;;17.14;60.52;101913.84;5036416;28;45216;-64
2022/05/27 08:22:02;;;;;;;;;10.33;10.00;;;;;17.16;60.53;101904.72;5034949;28;46399;-66
2022/05/27 08:24:27;;;;;;;;;10.33;7.00;;;;;17.25;60.58;101914.03;5034487;28;45314;-65
2022/05/27 08:26:53;;;;;;;;;10.00;8.00;;;;;17.33;60.63;101919.81;5034588;28;45302;-68
2022/05/27 08:29:18;;;;;;;;;11.33;9.00;;;;;17.44;60.04;101908.34;5027712;28;45727;-66
2022/05/27 08:31:44;;;;;;;;;10.33;9.00;;;;;17.51;60.02;101907.88;5035921;28;46521;-66
2022/05/27 08:39:46;;;;;;;;;8.00;6.67;;;;;17.55;60.07;101906.69;5019035;28;45532;-66
2022/05/27 08:42:20;;;;;;;;;6.67;5.00;;;;;17.61;59.89;101906.31;5035880;28;47190;-63
2022/05/27 08:44:53;;;;;;;;;4.67;4.00;;;;;17.59;59.94;101902.00;5030514;28;45256;-63
2022/05/27 08:47:24;;;;;;;;;7.33;7.33;;;;;17.62;60.18;101897.28;5026191;28;45311;-67
2022/05/27 08:50:09;;;;;;;;;7.00;7.00;;;;;17.66;59.91;101908.69;5034363;28;45462;-67
2022/05/27 08:52:45;;;;;;;;;6.33;5.67;;;;;17.69;60.18;101914.75;5035435;28;46277;-67
2022/05/27 09:01:06;;;;;;;;;8.67;5.00;;;;;17.81;60.38;101902.34;5033470;28;45393;-64
2022/05/27 09:03:44;;;;;;;;;9.33;6.00;;;;;17.75;60.52;101912.66;5017087;28;45447;-66
2022/05/27 09:06:10;;;;;;;;;7.00;5.33;;;;;17.74;60.82;101910.94;5032333;28;45340;-64
2022/05/27 09:08:36;;;;;;;;;8.33;6.00;;;;;17.74;60.61;101903.72;5036691;28;45461;-66
2022/05/27 09:11:13;;;;;;;;;7.67;6.00;;;;;17.77;60.65;101910.72;5035406;28;45401;-65
2022/05/27 09:14:04;;;;;;;;;7.67;5.00;;;;;17.78;60.66;101909.75;5031017;28;47814;-64
2022/05/27 09:16:39;;;;;;;;;5.00;4.00;;;;;17.79;60.72;101914.19;5038423;28;45419;-67
2022/05/27 09:19:41;;;;;;;;;4.67;4.67;;;;;17.74;60.64;101916.31;5030412;28;45397;-67
2022/05/27 09:22:34;;;;;;;;;5.00;5.00;;;;;17.71;61.02;101916.50;5043402;28;45279;-67
2022/05/27 09:25:25;;;;;;;;;6.00;4.33;;;;;17.67;61.26;101919.34;5033100;28;46221;-64
2022/05/27 09:28:05;;;;;;;;;3.33;3.33;;;;;17.69;61.39;101919.28;5018672;28;45406;-64
2022/05/27 09:30:34;;;;;;;;;8.33;4.33;;;;;17.69;60.83;101911.22;5033921;28;45304;-67
2022/05/27 09:33:15;;;;;;;;;6.67;6.67;;;;;17.61;61.34;101911.69;5026708;28;45473;-67
2022/05/27 09:36:04;;;;;;;;;7.00;6.33;;;;;17.66;61.43;101911.38;5025557;28;45514;-65
2022/05/27 09:38:34;;;;;;;;;7.00;5.00;;;;;17.72;61.17;101907.47;5024671;28;45535;-66
2022/05/27 09:41:41;;;;;;;;;8.00;5.67;;;;;17.86;60.90;101913.69;5035821;28;45426;-65
2022/05/27 09:44:32;;;;;;;;;4.00;3.67;;;;;17.93;60.72;101906.91;5037524;28;45572;-65
2022/05/27 09:46:58;;;;;;;;;5.67;5.67;;;;;18.06;60.82;101915.03;5038248;28;45361;-67
2022/05/27 09:49:23;;;;;;;;;8.00;6.00;;;;;18.14;59.98;101910.03;5035013;28;45429;-66
2022/05/27 09:51:51;;;;;;;;;6.00;5.00;;;;;18.23;60.24;101909.41;5035427;28;45754;-68
2022/05/27 09:54:26;;;;;;;;;6.00;3.00;;;;;18.27;60.39;101910.94;5030950;28;47244;-66
2022/05/27 09:57:18;;;;;;;;;5.33;4.00;;;;;18.35;60.24;101914.91;5033316;28;45221;-63
2022/05/27 09:59:47;;;;;;;;;5.67;3.67;;;;;18.45;59.77;101913.34;5032404;28;45330;-67
2022/05/27 10:02:18;;;;;;;;;5.33;5.00;;;;;18.61;59.53;101915.84;5035811;28;45398;-68
2022/05/27 10:04:52;;;;;;;;;5.67;5.67;;;;;18.72;59.42;101922.25;5036890;28;45488;-63
2022/05/27 10:07:27;;;;;;;;;8.00;5.67;;;;;18.81;58.79;101910.84;5036054;28;45398;-66
2022/05/27 10:09:53;;;;;;;;;5.00;5.00;;;;;18.81;58.71;101905.44;5036418;28;45259;-64
2022/05/27 10:12:33;;;;;;;;;6.67;3.33;;;;;18.91;58.68;101900.28;5037436;28;45272;-66
2022/05/27 10:14:59;;;;;;;;;4.67;4.67;;;;;18.97;58.62;101894.44;5029801;28;45485;-65
2022/05/27 10:17:36;;;;;;;;;4.33;4.33;;;;;19.21;58.04;101891.84;5037899;28;46091;-65
2022/05/27 10:20:29;;;;;;;;;6.00;6.00;;;;;19.49;57.43;101873.66;5026104;28;45453;-68
2022/05/27 10:23:05;;;;;;;;;3.00;3.00;;;;;19.88;56.63;101876.13;5034755;28;46192;-66
2022/05/27 10:25:37;;;;;;;;;5.00;5.00;;;;;20.08;55.53;101876.47;5036016;28;45804;-63
2022/05/27 10:28:04;;;;;;;;;5.33;3.33;;;;;20.27;55.04;101866.84;5036121;28;47291;-67
2022/05/27 10:30:37;;;;;;;;;6.67;4.67;;;;;20.42;55.38;101875.63;5036057;28;45358;-56
2022/05/27 10:33:19;;;;;;;;;4.67;4.00;;;;;20.44;57.36;101880.91;5036646;28;45522;-55
2022/05/27 10:35:46;;;;;;;;;4.00;4.00;;;;;20.38;56.83;101884.94;5026192;28;45572;-61
2022/05/27 10:38:21;;;;;;;;;4.00;4.00;;;;;20.22;56.90;101879.00;5024036;28;45346;-56
2022/05/27 10:41:24;;;;;;;;;5.67;4.00;;;;;20.02;56.65;101880.47;5017677;28;45852;-61
2022/05/27 10:44:14;;;;;;;;;6.00;4.33;;;;;19.88;56.50;101876.13;5027202;28;45584;-59
2022/05/27 10:46:57;;;;;;;;;6.00;4.67;;;;;19.80;57.38;101877.69;5026394;28;47058;-58
2022/05/27 10:50:02;;;;;;;;;5.33;5.33;;;;;19.70;57.21;101883.75;5021334;28;45565;-61
2022/05/27 10:52:50;;;;;;;;;6.67;5.33;;;;;19.61;58.21;101888.97;5021240;28;45476;-64
2022/05/27 10:55:23;;;;;;;;;5.00;5.00;;;;;19.58;58.28;101884.66;5018369;28;45423;-67
2022/05/27 11:04:26;;;;;;;;;5.00;5.00;;;;;19.63;58.04;101895.09;5016334;28;45395;-70
2022/05/27 11:07:23;;;;;;;;;3.67;3.67;;;;;19.63;57.45;101892.41;5030697;28;45567;-71
2022/05/27 11:10:13;;;;;;;;;4.67;4.67;;;;;19.52;57.26;101889.59;5020409;28;45516;-67
2022/05/27 11:16:13;;;;;;;;;5.00;5.00;;;;;19.30;58.35;101884.94;5037259;28;45467;-65
2022/05/27 11:19:00;;;;;;;;;7.67;5.00;;;;;19.30;58.73;101885.78;5020203;28;46195;-58
2022/05/27 11:21:38;;;;;;;;;7.33;6.33;;;;;19.28;58.62;101895.84;5027350;28;45419;-64
2022/05/27 11:24:14;;;;;;;;;6.00;4.67;;;;;19.24;58.75;101891.59;5029421;28;46155;-61
2022/05/27 11:27:02;;;;;;;;;5.00;5.00;;;;;19.15;58.50;101898.53;5034039;28;45465;-61
2022/05/27 11:29:43;;;;;;;;;5.67;5.67;;;;;19.11;59.32;101891.63;5018537;28;45571;-64
2022/05/27 11:32:38;;;;;;;;;4.67;4.67;;;;;19.14;58.82;101887.84;5035451;28;45333;-60
2022/05/27 11:35:38;;;;;;;;;5.67;5.00;;;;;19.23;58.59;101883.63;5017243;28;46130;-60
2022/05/27 11:38:26;;;;;;;;;10.00;9.00;;;;;19.38;58.01;101882.50;5021561;28;45586;-61
2022/05/27 11:41:05;;;;;;;;;9.00;5.00;;;;;19.48;57.99;101877.31;5053206;28;45176;-61
2022/05/27 11:43:37;;;;;;;;;6.00;6.00;;;;;19.45;57.61;101871.19;5036404;28;45435;-59
2022/05/27 11:46:11;;;;;;;;;4.67;4.67;;;;;19.43;57.95;101870.44;5035518;28;45727;-67
2022/05/27 11:49:04;;;;;;;;;6.33;6.33;;;;;19.41;57.40;101876.91;5034912;28;45315;-66
2022/05/27 11:51:57;;;;;;;;;6.33;4.00;;;;;19.31;57.72;101862.38;5024025;28;45243;-66
2022/05/27 11:55:08;;;;;;;;;6.00;6.00;;;;;19.26;58.07;101851.91;5029659;28;45324;-74
2022/05/27 11:58:06;;;;;;;;;6.00;5.00;;;;;19.36;57.82;101854.78;5025023;28;45703;-72
2022/05/27 12:00:39;;;;;;;;;4.67;4.67;;;;;19.55;57.29;101857.06;5034308;28;45521;-68
2022/05/27 12:03:09;;;;;;;;;9.33;7.00;;;;;19.60;57.77;101850.31;5022818;28;45442;-66
2022/05/27 12:05:47;;;;;;;;;4.00;4.00;;;;;19.66;56.88;101844.50;5015647;28;45544;-69
2022/05/27 12:08:24;;;;;;;;;5.33;5.33;;;;;19.69;57.31;101854.19;5018853;28;46670;-69
2022/05/27 12:11:04;;;;;;;;;7.00;6.67;;;;;19.65;57.38;101858.06;5034152;28;45477;-67
2022/05/27 12:13:36;;;;;;;;;8.00;7.33;;;;;19.67;57.78;101851.59;5019970;28;45365;-69
2022/05/27 12:16:08;;;;;;;;;8.00;7.00;;;;;19.63;57.72;101854.63;5031044;28;45442;-67
2022/05/27 12:18:53;;;;;;;;;3.00;3.00;;;;;19.41;57.84;101840.00;5035588;28;45679;-68
2022/05/27 12:21:23;;;;;;;;;5.00;4.33;;;;;19.42;58.28;101852.53;5017089;28;45441;-69
2022/05/27 12:23:55;;;;;;;;;6.33;6.33;;;;;19.49;58.45;101854.75;5015371;28;46220;-70
2022/05/27 12:26:30;;;;;;;;;4.00;4.00;;;;;19.55;58.31;101851.66;4998551;28;45567;-66